Time;durP1;ratioP1;P1;durP2;ratioP2;P2;SDS_P1;SDS_P2;PMS_P1;PMS_P2;Temp;Humidity;BMP_temperature;BMP_pressure;BME280_temperature;BME280_humidity;BME280_pressure;Samples;Min_cycle;Max_cycle;Signal;HPM_P1;HPM_P2
2021/11/21 00:01:11;;;;;;;24.85;19.40;;;13.30;99.90;;;;;;5073802;28;20235;-65
2021/11/21 00:03:38;;;;;;;24.77;18.52;;;13.30;99.90;;;;;;5073632;28;20250;-65
2021/11/21 00:06:05;;;;;;;24.08;17.00;;;13.30;99.90;;;;;;5074381;28;20228;-65
2021/11/21 00:08:32;;;;;;;30.25;21.38;;;13.30;99.90;;;;;;5074004;28;20239;-65
2021/11/21 00:10:59;;;;;;;27.65;21.35;;;13.30;99.90;;;;;;5074099;28;20251;-65
2021/11/21 00:13:26;;;;;;;30.92;24.13;;;13.30;99.90;;;;;;5074082;28;20239;-64
2021/11/21 00:15:55;;;;;;;26.60;21.05;;;13.20;99.90;;;;;;5074094;28;20224;-65
2021/11/21 00:18:22;;;;;;;24.55;18.80;;;13.20;99.90;;;;;;5073463;28;20232;-65
2021/11/21 00:20:49;;;;;;;20.88;17.30;;;13.30;99.90;;;;;;5074046;28;20224;-65
2021/11/21 00:23:16;;;;;;;27.65;21.67;;;13.30;99.90;;;;;;5072692;28;20686;-64
2021/11/21 00:25:43;;;;;;;24.02;20.45;;;13.30;99.90;;;;;;5074098;28;20246;-65
2021/11/21 00:28:10;;;;;;;24.65;19.38;;;13.30;99.90;;;;;;5073913;28;20216;-63
2021/11/21 00:30:37;;;;;;;23.80;18.40;;;13.30;99.90;;;;;;5073590;28;20981;-63
2021/11/21 00:33:06;;;;;;;23.77;17.70;;;13.30;99.90;;;;;;5073928;28;20220;-63
2021/11/21 00:35:33;;;;;;;22.70;18.60;;;13.30;99.90;;;;;;5072866;28;20232;-64
2021/11/21 00:38:00;;;;;;;26.52;19.38;;;13.30;99.90;;;;;;5073880;28;20273;-64
2021/11/21 00:40:27;;;;;;;28.40;20.00;;;13.30;99.90;;;;;;5072894;28;20228;-64
2021/11/21 00:42:57;;;;;;;20.40;16.17;;;13.20;99.90;;;;;;5073817;28;20600;-66
2021/11/21 00:45:25;;;;;;;23.88;17.63;;;13.20;99.90;;;;;;5073073;28;20254;-65
2021/11/21 00:47:52;;;;;;;21.98;17.55;;;13.20;99.90;;;;;;5073804;28;20297;-65
2021/11/21 00:50:25;;;;;;;35.45;27.45;;;13.20;99.90;;;;;;5072991;28;20227;-64
2021/11/21 00:52:58;;;;;;;20.98;17.52;;;13.10;99.90;;;;;;5073393;28;20220;-64
2021/11/21 00:55:33;;;;;;;24.60;19.15;;;13.10;99.90;;;;;;5073162;28;20236;-64
2021/11/21 00:58:00;;;;;;;23.10;17.60;;;13.10;99.90;;;;;;5073497;28;20215;-64
2021/11/21 01:00:27;;;;;;;22.83;17.35;;;13.20;99.90;;;;;;5072922;28;20231;-64
2021/11/21 01:02:53;;;;;;;19.90;16.73;;;13.10;99.90;;;;;;5071676;28;20278;-63
2021/11/21 01:05:22;;;;;;;17.63;14.98;;;13.20;99.90;;;;;;5072645;28;20670;-64
2021/11/21 01:07:49;;;;;;;23.52;17.63;;;13.20;99.90;;;;;;5073013;28;20682;-64
2021/11/21 01:10:21;;;;;;;23.52;16.60;;;13.20;99.90;;;;;;5072844;28;20700;-64
2021/11/21 01:12:48;;;;;;;26.20;20.95;;;13.20;99.90;;;;;;5070805;28;20231;-64
2021/11/21 01:15:19;;;;;;;19.25;16.48;;;13.20;99.90;;;;;;5072426;28;20216;-64
2021/11/21 01:17:46;;;;;;;17.98;14.82;;;13.20;99.90;;;;;;5072905;28;20306;-64
2021/11/21 01:20:13;;;;;;;18.60;15.43;;;13.20;99.90;;;;;;5072828;28;20228;-64
2021/11/21 01:22:42;;;;;;;18.90;14.75;;;13.20;99.90;;;;;;5072402;28;20654;-64
2021/11/21 01:25:11;;;;;;;20.65;16.63;;;13.20;99.90;;;;;;5072861;28;20289;-64
2021/11/21 01:27:39;;;;;;;19.00;14.98;;;13.10;99.90;;;;;;5072364;28;20297;-64
2021/11/21 01:30:09;;;;;;;19.02;15.93;;;13.20;99.90;;;;;;5072908;28;20227;-64
2021/11/21 01:32:37;;;;;;;19.83;17.13;;;13.10;99.90;;;;;;5072158;28;20235;-64
2021/11/21 01:35:05;;;;;;;20.65;15.48;;;13.10;99.90;;;;;;5071867;28;20220;-64
2021/11/21 01:37:32;;;;;;;20.40;16.30;;;13.10;99.90;;;;;;5072429;28;20277;-64
2021/11/21 01:40:01;;;;;;;25.42;18.30;;;13.10;99.90;;;;;;5072468;28;20228;-64
2021/11/21 01:42:28;;;;;;;24.48;18.38;;;13.10;99.90;;;;;;5072481;28;20219;-64
2021/11/21 01:44:55;;;;;;;23.08;18.30;;;13.10;99.90;;;;;;5072658;28;20633;-64
2021/11/21 01:47:22;;;;;;;39.90;31.60;;;13.10;99.90;;;;;;5072245;28;20251;-64
2021/11/21 01:49:49;;;;;;;21.65;17.27;;;13.10;99.90;;;;;;5072347;28;20231;-64
2021/11/21 01:52:17;;;;;;;24.48;18.33;;;13.10;99.90;;;;;;5072672;28;20274;-64
2021/11/21 01:54:43;;;;;;;17.25;14.82;;;13.10;99.90;;;;;;5072108;28;20276;-64
2021/11/21 01:57:13;;;;;;;28.50;20.45;;;13.10;99.90;;;;;;5071993;28;20266;-64
2021/11/21 01:59:41;;;;;;;93.25;54.42;;;13.10;99.90;;;;;;5071801;28;20247;-64
2021/11/21 02:02:08;;;;;;;22.02;19.10;;;13.10;99.90;;;;;;5072561;28;20224;-64
2021/11/21 02:04:35;;;;;;;18.52;16.00;;;13.10;99.90;;;;;;5070046;28;20273;-64
2021/11/21 02:07:02;;;;;;;47.75;34.90;;;13.10;99.90;;;;;;5072375;28;20692;-64
2021/11/21 02:09:29;;;;;;;21.73;18.98;;;13.00;99.90;;;;;;5071560;28;20220;-64
2021/11/21 02:11:56;;;;;;;28.20;21.20;;;13.00;99.90;;;;;;5071862;28;20539;-64
2021/11/21 02:14:24;;;;;;;29.52;22.13;;;13.00;99.90;;;;;;5070522;28;20271;-64
2021/11/21 02:16:51;;;;;;;22.98;18.42;;;12.90;99.90;;;;;;5072263;28;20228;-64
2021/11/21 02:19:19;;;;;;;19.17;16.05;;;12.90;99.90;;;;;;5072049;28;20224;-64
2021/11/21 02:21:48;;;;;;;20.08;17.33;;;12.90;99.90;;;;;;5071951;28;20231;-64
2021/11/21 02:24:15;;;;;;;23.65;18.35;;;12.90;99.90;;;;;;5070830;28;20223;-64
2021/11/21 02:26:46;;;;;;;29.42;22.55;;;12.90;99.90;;;;;;5071563;28;20238;-64
2021/11/21 02:29:13;;;;;;;21.77;17.05;;;13.00;99.90;;;;;;5072109;28;20219;-64
2021/11/21 02:31:40;;;;;;;21.27;17.27;;;12.90;99.90;;;;;;5072085;28;20223;-65
2021/11/21 02:34:07;;;;;;;26.63;19.42;;;12.80;99.90;;;;;;5071986;28;20227;-64
2021/11/21 02:36:35;;;;;;;21.90;16.95;;;12.80;99.90;;;;;;5071822;28;20665;-64
2021/11/21 02:39:04;;;;;;;20.85;16.67;;;12.80;99.90;;;;;;5071991;28;20289;-64
2021/11/21 02:41:31;;;;;;;20.25;16.05;;;12.80;99.90;;;;;;5071727;28;20536;-65
2021/11/21 02:43:58;;;;;;;22.00;16.30;;;12.90;99.90;;;;;;5072103;28;20216;-64
2021/11/21 02:46:25;;;;;;;22.67;17.23;;;12.80;99.90;;;;;;5073261;28;20223;-64
2021/11/21 02:48:52;;;;;;;33.63;26.27;;;12.80;99.90;;;;;;5075487;28;20678;-64
2021/11/21 02:51:19;;;;;;;20.13;16.27;;;12.90;99.90;;;;;;5075820;28;20628;-65
2021/11/21 02:53:46;;;;;;;20.58;16.90;;;12.90;99.90;;;;;;5075604;28;20235;-64
2021/11/21 02:56:16;;;;;;;41.00;30.60;;;12.90;99.90;;;;;;5075056;28;20613;-65
2021/11/21 02:58:45;;;;;;;26.00;20.88;;;12.90;99.90;;;;;;5075394;28;20231;-65
2021/11/21 03:01:16;;;;;;;21.33;16.77;;;12.90;99.90;;;;;;5075700;28;20228;-64
2021/11/21 03:03:43;;;;;;;22.33;17.70;;;12.90;99.90;;;;;;5073904;28;20555;-64
2021/11/21 03:06:11;;;;;;;23.65;18.58;;;12.90;99.90;;;;;;5075148;28;20621;-64
2021/11/21 03:08:39;;;;;;;18.95;16.58;;;12.90;99.90;;;;;;5074920;28;20224;-64
2021/11/21 03:11:22;;;;;;;24.00;18.23;;;12.90;99.90;;;;;;5075263;28;20220;-65
2021/11/21 03:13:49;;;;;;;22.70;18.10;;;13.00;99.90;;;;;;5075105;28;20734;-65
2021/11/21 03:16:16;;;;;;;30.35;22.50;;;13.00;99.90;;;;;;5066893;28;20223;-64
2021/11/21 03:18:43;;;;;;;27.58;22.95;;;13.00;99.90;;;;;;5075084;28;20232;-65
2021/11/21 03:21:12;;;;;;;33.47;25.73;;;13.00;99.90;;;;;;5075101;28;20228;-65
2021/11/21 03:23:39;;;;;;;20.33;16.70;;;13.00;99.90;;;;;;5073137;28;20247;-64
2021/11/21 03:26:06;;;;;;;32.67;26.23;;;13.00;99.90;;;;;;5075064;28;20223;-64
2021/11/21 03:28:34;;;;;;;27.90;19.40;;;13.00;99.90;;;;;;5074946;28;20238;-64
2021/11/21 03:31:02;;;;;;;23.92;19.95;;;12.90;99.90;;;;;;5062003;28;20285;-64
2021/11/21 03:33:28;;;;;;;27.08;20.58;;;12.90;99.90;;;;;;5074620;28;20231;-65
2021/11/21 03:35:55;;;;;;;23.38;18.23;;;12.90;99.90;;;;;;5075109;28;20285;-64
2021/11/21 03:38:23;;;;;;;27.80;19.75;;;12.90;99.90;;;;;;5074930;28;20235;-64
2021/11/21 03:40:49;;;;;;;27.65;21.55;;;12.90;99.90;;;;;;5074585;28;20720;-64
2021/11/21 03:43:17;;;;;;;26.67;19.83;;;13.00;99.90;;;;;;5074796;28;20220;-65
2021/11/21 03:45:45;;;;;;;25.90;19.40;;;13.00;99.90;;;;;;5074701;28;20601;-65
2021/11/21 03:48:12;;;;;;;81.55;47.45;;;12.90;99.90;;;;;;5074656;28;20686;-64
2021/11/21 03:50:39;;;;;;;29.40;19.63;;;12.90;99.90;;;;;;5074261;28;20228;-63
2021/11/21 03:53:06;;;;;;;26.08;19.77;;;12.90;99.90;;;;;;5074680;28;20216;-63
2021/11/21 03:55:33;;;;;;;23.90;19.23;;;13.00;99.90;;;;;;5074317;28;20323;-64
2021/11/21 03:58:00;;;;;;;28.10;19.60;;;13.00;99.90;;;;;;5072861;28;20224;-63
2021/11/21 04:00:28;;;;;;;27.10;19.38;;;13.00;99.90;;;;;;5074530;28;20289;-64
2021/11/21 04:02:57;;;;;;;53.15;37.28;;;12.80;99.90;;;;;;5071777;28;21550;-64
2021/11/21 04:05:25;;;;;;;47.92;32.67;;;12.90;99.90;;;;;;5074530;28;20612;-64
2021/11/21 04:07:52;;;;;;;28.23;21.23;;;12.80;99.90;;;;;;5074130;28;20303;-64
2021/11/21 04:10:19;;;;;;;28.38;22.38;;;12.80;99.90;;;;;;5074507;28;20243;-65
2021/11/21 04:12:46;;;;;;;35.10;25.70;;;12.80;99.90;;;;;;5071423;28;20301;-65
2021/11/21 04:15:13;;;;;;;25.10;20.15;;;12.80;99.90;;;;;;5074238;28;20230;-65
2021/11/21 04:17:40;;;;;;;28.17;21.63;;;12.90;99.90;;;;;;5073879;28;20274;-66
2021/11/21 04:20:11;;;;;;;22.73;19.15;;;12.80;99.90;;;;;;5074147;28;20566;-65
2021/11/21 04:22:38;;;;;;;25.85;18.30;;;12.90;99.90;;;;;;5073719;28;20220;-65
2021/11/21 04:25:07;;;;;;;38.45;26.30;;;12.90;99.90;;;;;;5074158;28;20230;-65
2021/11/21 04:27:34;;;;;;;23.25;18.73;;;12.80;99.90;;;;;;5073400;28;20228;-65
2021/11/21 04:30:01;;;;;;;30.13;23.67;;;12.80;99.90;;;;;;5074154;28;20681;-65
2021/11/21 04:32:29;;;;;;;29.60;22.05;;;12.80;99.90;;;;;;5073371;28;20216;-65
2021/11/21 04:34:57;;;;;;;31.02;21.60;;;12.80;99.90;;;;;;5073516;28;20270;-65
2021/11/21 04:37:26;;;;;;;29.20;22.13;;;12.80;99.90;;;;;;5074026;28;20216;-65
2021/11/21 04:39:53;;;;;;;28.60;20.20;;;12.80;99.90;;;;;;5073097;28;20227;-65
2021/11/21 04:42:20;;;;;;;26.92;19.25;;;12.80;99.90;;;;;;5073422;28;20231;-65
2021/11/21 04:44:47;;;;;;;27.92;21.67;;;12.80;99.90;;;;;;5072998;28;20565;-65
2021/11/21 04:47:14;;;;;;;28.50;19.88;;;12.80;99.90;;;;;;5073777;28;20223;-65
2021/11/21 04:49:41;;;;;;;37.05;26.40;;;12.70;99.90;;;;;;5072656;28;20231;-65
2021/11/21 04:52:09;;;;;;;29.88;22.00;;;12.80;99.90;;;;;;5061859;28;20220;-65
2021/11/21 04:54:37;;;;;;;27.67;21.65;;;12.80;99.90;;;;;;5073097;28;20231;-65
2021/11/21 04:57:06;;;;;;;27.95;22.10;;;12.70;99.90;;;;;;5073609;28;20228;-65
2021/11/21 04:59:33;;;;;;;25.67;19.35;;;12.70;99.90;;;;;;5073416;28;20231;-65
2021/11/21 05:02:00;;;;;;;27.10;20.10;;;12.80;99.90;;;;;;5073324;28;20313;-65
2021/11/21 05:04:27;;;;;;;25.27;18.75;;;12.70;99.90;;;;;;5071769;28;20239;-64
2021/11/21 05:06:54;;;;;;;29.55;20.25;;;12.70;99.90;;;;;;5072983;28;20242;-65
2021/11/21 05:09:21;;;;;;;28.60;21.92;;;12.80;99.90;;;;;;5072893;28;20224;-65
2021/11/21 05:11:49;;;;;;;29.77;21.13;;;12.70;99.90;;;;;;5072546;28;20235;-65
2021/11/21 05:14:18;;;;;;;27.33;20.33;;;12.60;99.90;;;;;;5073074;28;20769;-65
2021/11/21 05:16:45;;;;;;;32.47;21.90;;;12.70;99.90;;;;;;5072713;28;20224;-65
2021/11/21 05:19:12;;;;;;;27.23;20.63;;;12.70;99.90;;;;;;5072865;28;20232;-65
2021/11/21 05:21:40;;;;;;;31.52;21.35;;;12.70;99.90;;;;;;5072394;28;20778;-64
2021/11/21 05:24:07;;;;;;;29.27;21.02;;;12.60;99.90;;;;;;5067457;28;20220;-65
2021/11/21 05:26:34;;;;;;;29.85;20.05;;;12.60;99.90;;;;;;5072950;28;20277;-65
2021/11/21 05:29:03;;;;;;;26.45;19.55;;;12.60;99.90;;;;;;5072503;28;20228;-65
2021/11/21 05:31:32;;;;;;;23.58;18.80;;;12.60;99.90;;;;;;5072782;28;20224;-65
2021/11/21 05:33:59;;;;;;;25.15;19.50;;;12.60;99.90;;;;;;5072204;28;20251;-65
2021/11/21 05:36:26;;;;;;;25.90;20.60;;;12.50;99.90;;;;;;5072526;28;20281;-65
2021/11/21 05:38:56;;;;;;;25.52;19.13;;;12.50;99.90;;;;;;5072207;28;20566;-65
2021/11/21 05:41:23;;;;;;;25.15;19.63;;;12.60;99.90;;;;;;5072857;28;20310;-65
2021/11/21 05:43:50;;;;;;;39.80;28.95;;;12.60;99.90;;;;;;5065898;28;20609;-65
2021/11/21 05:46:18;;;;;;;31.27;24.33;;;12.50;99.90;;;;;;5072617;28;20234;-65
2021/11/21 05:48:45;;;;;;;28.02;21.13;;;12.40;99.90;;;;;;5062625;28;20803;-65
2021/11/21 05:51:13;;;;;;;25.70;19.17;;;12.40;99.90;;;;;;5072109;28;20277;-65
2021/11/21 05:53:40;;;;;;;29.73;20.35;;;12.40;99.90;;;;;;5071821;28;20224;-65
2021/11/21 05:56:07;;;;;;;27.77;19.05;;;12.40;99.90;;;;;;5072615;28;20232;-65
2021/11/21 05:58:34;;;;;;;26.13;19.40;;;12.40;99.90;;;;;;5072609;28;20219;-65
2021/11/21 06:01:01;;;;;;;26.92;19.30;;;12.50;99.90;;;;;;5071916;28;20228;-65
2021/11/21 06:03:29;;;;;;;22.08;17.40;;;12.40;99.90;;;;;;5071477;28;20247;-65
2021/11/21 06:05:56;;;;;;;26.63;19.00;;;12.50;99.90;;;;;;5071568;28;20235;-65
2021/11/21 06:08:23;;;;;;;29.20;20.00;;;12.50;99.90;;;;;;5072346;28;20231;-65
2021/11/21 06:10:50;;;;;;;23.20;17.10;;;12.50;99.90;;;;;;5071881;28;20682;-65
2021/11/21 06:13:17;;;;;;;30.17;19.67;;;12.50;99.90;;;;;;5067033;28;20232;-65
2021/11/21 06:15:45;;;;;;;36.63;26.45;;;12.50;99.90;;;;;;5072077;28;20741;-66
2021/11/21 06:18:12;;;;;;;34.92;28.50;;;12.40;99.90;;;;;;5072532;28;20243;-65
2021/11/21 06:20:41;;;;;;;25.13;18.48;;;12.40;99.90;;;;;;5072933;28;20624;-65
2021/11/21 06:23:09;;;;;;;24.75;18.88;;;12.30;99.90;;;;;;5076151;28;20759;-65
2021/11/21 06:25:36;;;;;;;26.70;19.45;;;12.30;99.90;;;;;;5074978;28;20227;-65
2021/11/21 06:28:04;;;;;;;24.23;18.05;;;12.40;99.90;;;;;;5074435;28;20278;-64
2021/11/21 06:30:31;;;;;;;24.55;17.67;;;12.30;99.90;;;;;;5076423;28;20224;-63
2021/11/21 06:32:58;;;;;;;23.80;16.42;;;12.30;99.90;;;;;;5075731;28;20232;-64
2021/11/21 06:35:25;;;;;;;22.25;16.48;;;12.30;99.90;;;;;;5076278;28;20224;-63
2021/11/21 06:37:53;;;;;;;22.75;16.17;;;12.30;99.90;;;;;;5076047;28;20228;-64
2021/11/21 06:40:20;;;;;;;22.60;15.52;;;12.30;99.90;;;;;;5076041;28;20228;-64
2021/11/21 06:42:47;;;;;;;20.58;16.00;;;12.30;99.90;;;;;;5075938;28;20640;-64
2021/11/21 06:45:15;;;;;;;25.30;17.55;;;12.40;99.90;;;;;;5076177;28;20227;-64
2021/11/21 06:47:42;;;;;;;27.50;21.15;;;12.40;99.90;;;;;;5076140;28;20228;-64
2021/11/21 06:50:12;;;;;;;25.65;16.80;;;12.40;99.90;;;;;;5075461;28;20235;-64
2021/11/21 06:52:41;;;;;;;20.27;15.48;;;12.30;99.90;;;;;;5075741;28;20224;-63
2021/11/21 06:55:12;;;;;;;24.83;16.52;;;12.30;99.90;;;;;;5074697;28;20562;-64
2021/11/21 06:57:39;;;;;;;22.50;15.32;;;12.40;99.90;;;;;;5074950;28;20285;-64
2021/11/21 07:00:09;;;;;;;23.02;15.65;;;12.40;99.90;;;;;;5074490;28;20239;-64
2021/11/21 07:02:36;;;;;;;21.27;15.65;;;12.40;99.90;;;;;;5072633;28;20232;-64
2021/11/21 07:05:03;;;;;;;19.55;14.93;;;12.40;99.90;;;;;;5074408;28;20224;-64
2021/11/21 07:07:30;;;;;;;25.70;18.67;;;12.40;99.90;;;;;;5075042;28;20219;-64
2021/11/21 07:09:57;;;;;;;21.02;16.60;;;12.40;99.90;;;;;;5062410;28;20231;-64
2021/11/21 07:12:25;;;;;;;20.13;14.30;;;12.40;99.90;;;;;;5061993;28;20221;-64
2021/11/21 07:14:52;;;;;;;21.60;16.20;;;12.50;99.90;;;;;;5074581;28;20235;-64
2021/11/21 07:17:19;;;;;;;22.90;16.30;;;12.40;99.90;;;;;;5075451;28;20224;-64
2021/11/21 07:19:46;;;;;;;19.15;15.73;;;12.40;99.90;;;;;;5075444;28;20285;-64
2021/11/21 07:22:13;;;;;;;17.13;14.10;;;12.40;99.90;;;;;;5075011;28;20228;-64
2021/11/21 07:24:40;;;;;;;21.13;14.45;;;12.40;99.90;;;;;;5075512;28;20547;-64
2021/11/21 07:27:07;;;;;;;19.48;14.70;;;12.40;99.90;;;;;;5074490;28;20627;-64
2021/11/21 07:29:35;;;;;;;19.67;15.38;;;12.40;99.90;;;;;;5075421;28;20595;-64
2021/11/21 07:32:06;;;;;;;21.17;14.52;;;12.40;99.90;;;;;;5074510;28;20232;-64
2021/11/21 07:34:33;;;;;;;22.15;15.50;;;12.40;99.90;;;;;;5075144;28;20319;-64
2021/11/21 07:37:00;;;;;;;19.90;15.55;;;12.30;99.90;;;;;;5074705;28;20235;-64
2021/11/21 07:39:27;;;;;;;21.15;16.17;;;12.30;99.90;;;;;;5075026;28;20232;-64
2021/11/21 07:41:55;;;;;;;19.80;13.85;;;12.20;99.90;;;;;;5074616;28;20263;-64
2021/11/21 07:44:22;;;;;;;17.45;13.82;;;12.30;99.90;;;;;;5075210;28;20293;-64
2021/11/21 07:46:50;;;;;;;19.90;14.68;;;12.30;99.90;;;;;;5075018;28;20228;-64
2021/11/21 07:49:17;;;;;;;19.90;15.80;;;12.30;99.90;;;;;;5074618;28;20228;-64
2021/11/21 07:51:45;;;;;;;19.45;14.85;;;12.30;99.90;;;;;;5074984;28;20701;-64
2021/11/21 07:54:12;;;;;;;17.73;12.95;;;12.20;99.90;;;;;;5074623;28;20585;-64
2021/11/21 07:56:38;;;;;;;16.88;13.27;;;12.20;99.90;;;;;;5074833;28;20227;-65
2021/11/21 07:59:05;;;;;;;20.08;14.15;;;12.20;99.90;;;;;;5074287;28;20274;-64
2021/11/21 08:01:32;;;;;;;20.95;15.70;;;12.30;99.90;;;;;;5074591;28;20289;-64
2021/11/21 08:04:01;;;;;;;17.80;11.88;;;12.30;99.90;;;;;;5071209;28;20220;-63
2021/11/21 08:06:27;;;;;;;16.23;12.10;;;12.30;99.90;;;;;;5074535;28;20220;-64
2021/11/21 08:08:54;;;;;;;17.35;13.10;;;12.30;99.90;;;;;;5074135;28;20232;-63
2021/11/21 08:11:25;;;;;;;20.20;14.30;;;12.30;99.90;;;;;;5074581;28;20226;-64
2021/11/21 08:13:52;;;;;;;19.80;13.80;;;12.20;99.90;;;;;;5074375;28;20238;-64
2021/11/21 08:16:19;;;;;;;18.05;13.45;;;12.10;99.90;;;;;;5074241;28;20978;-64
2021/11/21 08:18:46;;;;;;;19.83;14.52;;;12.10;99.90;;;;;;5074552;28;20220;-64
2021/11/21 08:21:14;;;;;;;17.20;13.07;;;12.10;99.90;;;;;;5073687;28;20549;-64
2021/11/21 08:23:41;;;;;;;18.67;12.80;;;12.10;99.90;;;;;;5074463;28;20216;-64
2021/11/21 08:26:08;;;;;;;20.65;13.40;;;12.10;99.90;;;;;;5073842;28;20228;-64
2021/11/21 08:28:38;;;;;;;19.23;13.68;;;12.10;99.90;;;;;;5074358;28;20223;-64
2021/11/21 08:31:05;;;;;;;17.73;13.95;;;12.10;99.90;;;;;;5073681;28;20224;-64
2021/11/21 08:33:32;;;;;;;20.30;14.13;;;12.10;99.90;;;;;;5074167;28;20246;-64
2021/11/21 08:35:59;;;;;;;19.90;14.32;;;12.00;99.90;;;;;;5073608;28;20704;-64
2021/11/21 08:38:27;;;;;;;19.48;14.70;;;12.00;99.90;;;;;;5073881;28;20231;-64
2021/11/21 08:40:55;;;;;;;17.33;12.60;;;12.10;99.90;;;;;;5073987;28;20745;-64
2021/11/21 08:43:22;;;;;;;17.48;13.98;;;12.00;99.90;;;;;;5072863;28;20941;-64
2021/11/21 08:45:49;;;;;;;18.95;13.07;;;12.10;99.90;;;;;;5074034;28;20289;-64
2021/11/21 08:48:16;;;;;;;21.10;14.07;;;12.10;99.90;;;;;;5073336;28;20231;-64
2021/11/21 08:50:42;;;;;;;21.48;14.30;;;12.00;99.90;;;;;;5073524;28;20227;-64
2021/11/21 08:53:09;;;;;;;20.70;15.65;;;12.00;99.90;;;;;;5062676;28;20220;-64
2021/11/21 08:55:38;;;;;;;24.48;17.20;;;11.90;99.90;;;;;;5070736;28;20728;-64
2021/11/21 08:58:06;;;;;;;21.85;16.55;;;11.90;99.90;;;;;;5073159;28;20290;-64
2021/11/21 09:00:33;;;;;;;20.83;13.80;;;11.90;99.90;;;;;;5073454;28;20323;-64
2021/11/21 09:03:03;;;;;;;17.25;13.05;;;12.00;99.90;;;;;;5067589;28;20232;-64
2021/11/21 09:05:30;;;;;;;17.80;14.77;;;12.00;99.90;;;;;;5071982;28;20224;-64
2021/11/21 09:07:57;;;;;;;18.33;13.43;;;12.00;99.90;;;;;;5073649;28;20232;-64
2021/11/21 09:10:24;;;;;;;22.05;15.90;;;12.00;99.90;;;;;;5073115;28;20242;-64
2021/11/21 09:12:53;;;;;;;21.33;15.23;;;12.00;99.90;;;;;;5073225;28;20224;-63
2021/11/21 09:15:22;;;;;;;17.83;12.98;;;11.90;99.90;;;;;;5072611;28;20259;-64
2021/11/21 09:17:52;;;;;;;21.30;15.13;;;11.90;99.90;;;;;;5073357;28;20262;-64
2021/11/21 09:20:20;;;;;;;20.15;14.35;;;11.90;99.90;;;;;;5059185;28;20234;-64
2021/11/21 09:22:52;;;;;;;17.65;14.50;;;11.90;99.90;;;;;;5072936;28;20297;-64
2021/11/21 09:25:20;;;;;;;18.17;14.57;;;11.90;99.90;;;;;;5072792;28;20224;-64
2021/11/21 09:27:47;;;;;;;16.90;13.68;;;11.90;99.90;;;;;;5072747;28;20239;-64
2021/11/21 09:30:15;;;;;;;17.83;14.07;;;11.90;99.90;;;;;;5072177;28;20543;-64
2021/11/21 09:32:42;;;;;;;17.00;13.02;;;12.00;99.90;;;;;;5072854;28;20654;-64
2021/11/21 09:35:10;;;;;;;16.55;13.73;;;12.00;99.90;;;;;;5072459;28;20775;-64
2021/11/21 09:37:38;;;;;;;20.08;14.50;;;12.00;99.90;;;;;;5072821;28;20224;-64
2021/11/21 09:40:07;;;;;;;18.73;12.65;;;12.00;99.90;;;;;;5072628;28;20227;-63
2021/11/21 09:42:34;;;;;;;20.05;13.18;;;12.00;99.90;;;;;;5072780;28;20243;-64
2021/11/21 09:45:01;;;;;;;13.90;11.35;;;12.00;99.90;;;;;;5072634;28;20231;-64
2021/11/21 09:47:30;;;;;;;17.10;13.85;;;12.00;99.90;;;;;;5072362;28;20220;-64
2021/11/21 09:50:00;;;;;;;15.25;12.05;;;12.00;99.90;;;;;;5072652;28;20991;-64
2021/11/21 09:52:27;;;;;;;16.08;12.45;;;12.00;99.90;;;;;;5067309;28;20274;-64
2021/11/21 09:54:54;;;;;;;20.92;15.35;;;12.00;99.90;;;;;;5064160;28;20721;-64
2021/11/21 09:57:22;;;;;;;26.38;18.92;;;12.00;99.90;;;;;;5072113;28;20224;-64
2021/11/21 09:59:52;;;;;;;20.05;15.10;;;12.00;99.90;;;;;;5072759;28;20546;-64
2021/11/21 10:02:21;;;;;;;17.75;14.10;;;12.00;99.90;;;;;;5072075;28;20228;-64
2021/11/21 10:04:50;;;;;;;15.48;12.25;;;12.00;99.90;;;;;;5065609;28;20254;-64
2021/11/21 10:07:26;;;;;;;17.65;13.40;;;12.00;99.90;;;;;;5072033;28;20293;-64
2021/11/21 10:09:54;;;;;;;17.67;13.20;;;12.10;99.90;;;;;;5072479;28;20712;-63
2021/11/21 10:12:22;;;;;;;16.13;13.23;;;12.10;99.90;;;;;;5072128;28;20620;-63
2021/11/21 10:14:55;;;;;;;15.75;12.52;;;12.10;99.90;;;;;;5072424;28;20254;-64
2021/11/21 10:17:25;;;;;;;17.52;14.43;;;12.10;99.90;;;;;;5072301;28;20298;-64
2021/11/21 10:20:15;;;;;;;32.45;19.10;;;12.00;99.90;;;;;;5072368;28;20234;-64
2021/11/21 10:23:00;;;;;;;21.70;13.88;;;12.00;99.90;;;;;;5072863;28;20244;-64
2021/11/21 10:25:46;;;;;;;23.30;18.38;;;12.00;99.90;;;;;;5060688;28;20223;-64
2021/11/21 10:28:17;;;;;;;17.50;14.05;;;12.00;99.90;;;;;;5072376;28;20224;-64
2021/11/21 10:31:11;;;;;;;20.88;15.70;;;12.10;99.90;;;;;;5071694;28;20238;-64
2021/11/21 10:33:42;;;;;;;19.63;14.70;;;12.10;99.90;;;;;;5071705;28;20252;-64
2021/11/21 10:36:13;;;;;;;20.85;15.43;;;12.10;99.90;;;;;;5072210;28;20303;-63
2021/11/21 10:38:43;;;;;;;18.85;14.60;;;12.10;99.90;;;;;;5072048;28;20632;-64
2021/11/21 10:41:14;;;;;;;18.90;14.82;;;12.10;99.90;;;;;;5072114;28;20234;-64
2021/11/21 10:43:57;;;;;;;23.25;14.27;;;12.20;99.90;;;;;;5071827;28;20223;-64
2021/11/21 10:46:30;;;;;;;15.93;13.57;;;12.20;99.90;;;;;;5072151;28;20224;-64
2021/11/21 10:49:14;;;;;;;17.60;13.90;;;12.20;99.90;;;;;;5071994;28;21041;-64
2021/11/21 10:51:43;;;;;;;16.65;13.98;;;12.10;99.90;;;;;;5059663;28;20227;-64
2021/11/21 10:54:21;;;;;;;17.08;13.50;;;12.10;99.90;;;;;;5072073;28;20224;-64
2021/11/21 10:56:50;;;;;;;18.60;12.88;;;12.20;99.90;;;;;;5071873;28;20227;-64
2021/11/21 10:59:47;;;;;;;16.70;13.48;;;12.20;99.90;;;;;;5072048;28;20232;-64
2021/11/21 11:02:17;;;;;;;15.52;13.40;;;12.20;99.90;;;;;;5071720;28;20629;-64
2021/11/21 11:05:02;;;;;;;21.42;15.65;;;12.20;99.90;;;;;;5060714;28;20609;-64
2021/11/21 11:07:34;;;;;;;17.75;13.68;;;12.20;99.90;;;;;;5073695;28;20239;-64
2021/11/21 11:10:01;;;;;;;17.63;13.38;;;12.20;99.90;;;;;;5075736;28;20263;-64
2021/11/21 11:12:29;;;;;;;16.00;12.52;;;12.20;99.90;;;;;;5075167;28;20239;-64
2021/11/21 11:14:57;;;;;;;16.08;14.00;;;12.20;99.90;;;;;;5075647;28;20227;-64
2021/11/21 11:17:26;;;;;;;19.40;15.68;;;12.20;99.90;;;;;;5075301;28;20273;-64
2021/11/21 11:19:56;;;;;;;17.00;13.45;;;12.20;99.90;;;;;;5075420;28;20315;-64
2021/11/21 11:22:24;;;;;;;18.02;15.23;;;12.20;99.90;;;;;;5074962;28;20247;-64
2021/11/21 11:24:55;;;;;;;17.98;15.00;;;12.20;99.90;;;;;;5075701;28;20303;-64
2021/11/21 11:27:28;;;;;;;19.33;14.98;;;12.30;99.90;;;;;;5074835;28;20307;-63
2021/11/21 11:29:56;;;;;;;14.05;11.82;;;12.30;99.90;;;;;;5073128;28;20231;-64
2021/11/21 11:32:28;;;;;;;16.75;11.82;;;12.30;99.90;;;;;;5063684;28;20666;-64
2021/11/21 11:34:55;;;;;;;14.95;12.55;;;12.30;99.90;;;;;;5075318;28;20251;-64
2021/11/21 11:37:40;;;;;;;18.20;13.95;;;12.40;99.90;;;;;;5074909;28;20231;-64
2021/11/21 11:40:56;;;;;;;16.85;12.50;;;12.40;99.90;;;;;;5074999;28;20306;-64
2021/11/21 11:43:47;;;;;;;14.80;11.85;;;12.40;99.90;;;;;;5074950;28;20224;-64
2021/11/21 11:46:30;;;;;;;16.45;13.75;;;12.40;99.90;;;;;;5074887;28;20578;-64
2021/11/21 11:49:00;;;;;;;15.30;12.63;;;12.50;99.90;;;;;;5074807;28;20679;-64
2021/11/21 11:51:50;;;;;;;15.93;13.10;;;12.50;99.90;;;;;;5074818;28;20220;-64
2021/11/21 11:54:35;;;;;;;14.63;11.88;;;12.50;99.90;;;;;;5074583;28;20224;-64
2021/11/21 11:57:04;;;;;;;18.33;13.70;;;12.50;99.90;;;;;;5074827;28;20306;-64
2021/11/21 11:59:36;;;;;;;14.13;12.00;;;12.50;99.90;;;;;;5074618;28;20239;-64
2021/11/21 12:02:06;;;;;;;14.50;12.00;;;12.50;99.90;;;;;;5074232;28;20319;-64
2021/11/21 12:04:54;;;;;;;15.35;12.30;;;12.50;99.90;;;;;;5062012;28;20220;-64
2021/11/21 12:07:33;;;;;;;13.13;11.73;;;12.50;99.90;;;;;;5074285;28;20565;-64
2021/11/21 12:10:09;;;;;;;12.85;11.30;;;12.40;99.90;;;;;;5074245;28;20258;-64
2021/11/21 12:12:52;;;;;;;13.25;11.85;;;12.40;99.90;;;;;;5074402;28;20223;-64
2021/11/21 12:15:44;;;;;;;15.90;12.35;;;12.50;99.90;;;;;;5074116;28;20227;-63
2021/11/21 12:18:11;;;;;;;14.43;12.15;;;12.50;99.90;;;;;;5060231;28;20259;-64
2021/11/21 12:20:54;;;;;;;13.38;11.07;;;12.50;99.90;;;;;;5074190;28;20700;-64
2021/11/21 12:23:57;;;;;;;17.25;13.27;;;12.50;99.90;;;;;;5074020;28;20629;-64
2021/11/21 12:26:27;;;;;;;15.82;12.00;;;12.50;99.90;;;;;;5062070;28;20228;-64
2021/11/21 12:29:04;;;;;;;14.63;11.75;;;12.50;99.90;;;;;;5054619;28;20637;-64
2021/11/21 12:31:37;;;;;;;18.45;13.25;;;12.50;99.90;;;;;;5053697;28;20310;-64
2021/11/21 12:34:36;;;;;;;21.67;14.70;;;12.50;99.90;;;;;;5053616;28;20236;-64
2021/11/21 12:37:28;;;;;;;17.67;14.38;;;12.60;99.90;;;;;;5054262;28;20613;-64
2021/11/21 12:39:57;;;;;;;24.25;17.15;;;12.60;99.90;;;;;;5049207;28;20229;-64